SWR283 FAOR-LSZH
Flight info
| Callsign | SWR283 |
|---|---|
| Flight time | N/A |
| Altitude | 34000 |
| Route | VASUR3A VASUR UZ21 ITROL UQ25 RUDAS UT941 IBRIT UM998 AXUGO/N0482F360 UM998 OXIMU/N0475F380 UM998 TOLGA/N0464F400 UM998 CSO UM2 CIRTA DCT ETOIL DCT OMEDA DCT TORTU DCT ERTEV DCT CANNE Z651 KELIP |
| Aircraft | A343/H-SDE2E3FGHIJ4J5M1RWXY/LB1D1 |
Departure
| Time | 2026-05-03 20:24 |
|---|---|
| Airport | O.R. Tambo International Airport (FAOR) |
Arrival
| Time | N/A |
|---|---|
| Airport | Zürich Airport (LSZH) |
| Time | Latitude | Longitude | Altitude | Speed | Heading |
|---|---|---|---|---|---|
| 2026-05-03 20:15 | -26.13170 | 28.23409 | 5552 ft | 0 kts | 6° |
| 2026-05-03 20:15 | -26.13162 | 28.23410 | 5553 ft | 3 kts | 6° |
| 2026-05-03 20:16 | -26.13131 | 28.23423 | 5551 ft | 5 kts | 39° |
| 2026-05-03 20:16 | -26.13116 | 28.23474 | 5553 ft | 9 kts | 88° |
| 2026-05-03 20:16 | -26.13124 | 28.23558 | 5553 ft | 13 kts | 96° |
| 2026-05-03 20:16 | -26.13135 | 28.23652 | 5553 ft | 9 kts | 97° |
| 2026-05-03 20:17 | -26.13169 | 28.23681 | 5552 ft | 6 kts | 169° |
| 2026-05-03 20:17 | -26.13208 | 28.23676 | 5550 ft | 7 kts | 193° |
| 2026-05-03 20:17 | -26.13256 | 28.23661 | 5554 ft | 10 kts | 195° |
| 2026-05-03 20:17 | -26.13349 | 28.23632 | 5553 ft | 17 kts | 195° |
| 2026-05-03 20:18 | -26.13458 | 28.23599 | 5556 ft | 15 kts | 195° |
| 2026-05-03 20:18 | -26.13555 | 28.23568 | 5556 ft | 15 kts | 195° |
| 2026-05-03 20:18 | -26.13666 | 28.23534 | 5559 ft | 17 kts | 195° |
| 2026-05-03 20:18 | -26.13755 | 28.23506 | 5561 ft | 8 kts | 195° |
| 2026-05-03 20:19 | -26.13785 | 28.23465 | 5557 ft | 9 kts | 261° |
| 2026-05-03 20:19 | -26.13771 | 28.23377 | 5555 ft | 10 kts | 274° |
| 2026-05-03 20:19 | -26.13809 | 28.23331 | 5555 ft | 7 kts | 199° |
| 2026-05-03 20:19 | -26.13864 | 28.23311 | 5555 ft | 12 kts | 197° |
| 2026-05-03 20:20 | -26.13963 | 28.23281 | 5556 ft | 14 kts | 195° |
| 2026-05-03 20:20 | -26.14051 | 28.23253 | 5557 ft | 12 kts | 196° |
| 2026-05-03 20:20 | -26.14128 | 28.23229 | 5558 ft | 11 kts | 196° |
| 2026-05-03 20:20 | -26.14202 | 28.23206 | 5559 ft | 11 kts | 194° |
| 2026-05-03 20:21 | -26.14273 | 28.23205 | 5562 ft | 9 kts | 166° |
| 2026-05-03 20:21 | -26.14339 | 28.23223 | 5566 ft | 13 kts | 166° |
| 2026-05-03 20:21 | -26.14450 | 28.23254 | 5564 ft | 19 kts | 166° |
| 2026-05-03 20:21 | -26.14561 | 28.23286 | 5568 ft | 13 kts | 165° |
| 2026-05-03 20:22 | -26.14603 | 28.23337 | 5570 ft | 7 kts | 105° |
| 2026-05-03 20:22 | -26.14617 | 28.23392 | 5571 ft | 8 kts | 106° |
| 2026-05-03 20:22 | -26.14615 | 28.23434 | 5571 ft | 4 kts | 54° |
| 2026-05-03 20:22 | -26.14598 | 28.23446 | 5570 ft | 4 kts | 30° |
| 2026-05-03 20:23 | -26.14500 | 28.23485 | 5569 ft | 24 kts | 13° |
| 2026-05-03 20:23 | -26.14221 | 28.23567 | 5571 ft | 65 kts | 15° |
| 2026-05-03 20:23 | -26.13622 | 28.23752 | 5562 ft | 112 kts | 15° |
| 2026-05-03 20:23 | -26.12729 | 28.24027 | 5549 ft | 153 kts | 15° |
| 2026-05-03 20:24 | -26.11594 | 28.24381 | 5588 ft | 181 kts | 15° |
| 2026-05-03 20:24 | -26.10417 | 28.24798 | 6136 ft | 178 kts | 17° |
| 2026-05-03 20:24 | -26.09210 | 28.25234 | 6580 ft | 185 kts | 16° |
| 2026-05-03 20:24 | -26.07922 | 28.25500 | 6793 ft | 194 kts | 356° |
| 2026-05-03 20:25 | -26.06672 | 28.24945 | 6858 ft | 202 kts | 316° |
| 2026-05-03 20:25 | -26.05949 | 28.23572 | 6930 ft | 214 kts | 292° |
| 2026-05-03 20:25 | -26.05420 | 28.21984 | 7107 ft | 224 kts | 291° |
| 2026-05-03 20:25 | -26.04880 | 28.20328 | 7332 ft | 234 kts | 292° |
| 2026-05-03 20:26 | -26.04255 | 28.18611 | 7501 ft | 246 kts | 294° |
| 2026-05-03 20:26 | -26.03466 | 28.16860 | 7621 ft | 260 kts | 307° |
| 2026-05-03 20:26 | -26.02082 | 28.15535 | 7817 ft | 270 kts | 332° |
| 2026-05-03 20:26 | -26.00384 | 28.14595 | 8184 ft | 273 kts | 334° |
| 2026-05-03 20:27 | -25.98674 | 28.13652 | 8626 ft | 275 kts | 333° |
| 2026-05-03 20:27 | -25.96959 | 28.12681 | 9077 ft | 277 kts | 333° |
| 2026-05-03 20:27 | -25.95240 | 28.11699 | 9521 ft | 278 kts | 333° |
| 2026-05-03 20:27 | -25.93515 | 28.10710 | 10029 ft | 279 kts | 333° |
| 2026-05-03 20:28 | -25.91788 | 28.09717 | 10480 ft | 281 kts | 333° |
| 2026-05-03 20:28 | -25.90017 | 28.08698 | 10684 ft | 292 kts | 333° |
| 2026-05-03 20:28 | -25.88206 | 28.07656 | 10854 ft | 303 kts | 333° |
| 2026-05-03 20:28 | -25.86305 | 28.06562 | 11040 ft | 313 kts | 333° |
| 2026-05-03 20:29 | -25.84333 | 28.05427 | 11190 ft | 324 kts | 333° |
| 2026-05-03 20:29 | -25.82298 | 28.04257 | 11372 ft | 335 kts | 333° |
| 2026-05-03 20:29 | -25.80202 | 28.03051 | 11524 ft | 344 kts | 333° |
| 2026-05-03 20:29 | -25.78050 | 28.01815 | 11698 ft | 353 kts | 333° |
| 2026-05-03 20:30 | -25.75844 | 28.00548 | 11834 ft | 361 kts | 333° |
| 2026-05-03 20:30 | -25.73590 | 27.99253 | 12002 ft | 369 kts | 333° |
| 2026-05-03 20:30 | -25.71296 | 27.97937 | 12208 ft | 374 kts | 333° |
| 2026-05-03 20:30 | -25.68979 | 27.96608 | 12453 ft | 377 kts | 333° |
| 2026-05-03 20:31 | -25.66637 | 27.95264 | 12732 ft | 380 kts | 333° |
| 2026-05-03 20:31 | -25.64283 | 27.93915 | 12997 ft | 382 kts | 333° |
| 2026-05-03 20:31 | -25.61911 | 27.92557 | 13276 ft | 385 kts | 333° |
| 2026-05-03 20:31 | -25.59528 | 27.91192 | 13541 ft | 387 kts | 333° |
| 2026-05-03 20:32 | -25.57140 | 27.89790 | 13814 ft | 390 kts | 330° |
| 2026-05-03 20:32 | -25.54862 | 27.88143 | 14078 ft | 392 kts | 324° |
| 2026-05-03 20:32 | -25.52667 | 27.86341 | 14330 ft | 394 kts | 322° |
| 2026-05-03 20:32 | -25.50514 | 27.84461 | 14607 ft | 395 kts | 321° |
| 2026-05-03 20:33 | -25.48370 | 27.82545 | 14901 ft | 395 kts | 321° |
| 2026-05-03 20:33 | -25.46230 | 27.80629 | 15172 ft | 396 kts | 321° |
| 2026-05-03 20:33 | -25.44079 | 27.78715 | 15440 ft | 397 kts | 321° |
| 2026-05-03 20:33 | -25.41920 | 27.76808 | 15735 ft | 398 kts | 321° |
| 2026-05-03 20:34 | -25.39747 | 27.74904 | 16008 ft | 399 kts | 322° |
| 2026-05-03 20:34 | -25.37563 | 27.72999 | 16282 ft | 400 kts | 322° |
| 2026-05-03 20:34 | -25.35376 | 27.71096 | 16548 ft | 401 kts | 322° |
| 2026-05-03 20:34 | -25.33182 | 27.69188 | 16835 ft | 402 kts | 322° |
| 2026-05-03 20:35 | -25.31004 | 27.67296 | 17111 ft | 403 kts | 322° |
| 2026-05-03 20:35 | -25.28797 | 27.65380 | 17377 ft | 404 kts | 322° |
| 2026-05-03 20:35 | -25.26585 | 27.63458 | 17637 ft | 405 kts | 322° |
| 2026-05-03 20:35 | -25.24365 | 27.61530 | 17905 ft | 406 kts | 322° |
| 2026-05-03 20:36 | -25.22135 | 27.59596 | 18187 ft | 407 kts | 322° |
| 2026-05-03 20:36 | -25.19907 | 27.57663 | 18459 ft | 408 kts | 322° |
| 2026-05-03 20:36 | -25.17666 | 27.55721 | 18701 ft | 410 kts | 322° |
| 2026-05-03 20:36 | -25.15424 | 27.53778 | 18920 ft | 411 kts | 322° |
| 2026-05-03 20:37 | -25.13169 | 27.51825 | 19153 ft | 412 kts | 322° |
| 2026-05-03 20:37 | -25.10910 | 27.49870 | 19391 ft | 413 kts | 322° |
| 2026-05-03 20:37 | -25.08642 | 27.47908 | 19602 ft | 415 kts | 322° |
| 2026-05-03 20:37 | -25.06366 | 27.45940 | 19800 ft | 417 kts | 322° |
| 2026-05-03 20:38 | -25.04080 | 27.43963 | 20034 ft | 418 kts | 322° |
| 2026-05-03 20:38 | -25.01807 | 27.41964 | 20288 ft | 419 kts | 320° |
| 2026-05-03 20:38 | -24.99606 | 27.39857 | 20522 ft | 420 kts | 318° |
| 2026-05-03 20:38 | -24.97445 | 27.37688 | 20758 ft | 421 kts | 317° |
| 2026-05-03 20:39 | -24.95289 | 27.35495 | 20994 ft | 422 kts | 317° |
| 2026-05-03 20:39 | -24.93125 | 27.33303 | 21212 ft | 424 kts | 317° |
| 2026-05-03 20:39 | -24.90942 | 27.31113 | 21444 ft | 425 kts | 318° |
| 2026-05-03 20:39 | -24.88744 | 27.28929 | 21669 ft | 426 kts | 318° |
| 2026-05-03 20:40 | -24.86532 | 27.26745 | 21902 ft | 427 kts | 318° |
| 2026-05-03 20:40 | -24.84313 | 27.24564 | 22136 ft | 429 kts | 318° |
| 2026-05-03 20:40 | -24.82082 | 27.22377 | 22368 ft | 430 kts | 318° |
| 2026-05-03 20:40 | -24.79842 | 27.20181 | 22571 ft | 432 kts | 318° |
| 2026-05-03 20:41 | -24.77594 | 27.17979 | 22787 ft | 433 kts | 318° |
| 2026-05-03 20:41 | -24.75338 | 27.15770 | 23046 ft | 434 kts | 318° |
| 2026-05-03 20:41 | -24.73080 | 27.13558 | 23279 ft | 435 kts | 318° |
| 2026-05-03 20:41 | -24.70815 | 27.11341 | 23502 ft | 437 kts | 318° |
| 2026-05-03 20:42 | -24.68543 | 27.09117 | 23721 ft | 439 kts | 318° |
| 2026-05-03 20:42 | -24.66256 | 27.06880 | 23924 ft | 440 kts | 318° |
| 2026-05-03 20:42 | -24.63966 | 27.04640 | 24110 ft | 442 kts | 318° |
| 2026-05-03 20:42 | -24.61667 | 27.02394 | 24295 ft | 443 kts | 318° |
| 2026-05-03 20:43 | -24.59359 | 27.00139 | 24486 ft | 444 kts | 318° |
| 2026-05-03 20:43 | -24.57044 | 26.97878 | 24671 ft | 446 kts | 318° |
| 2026-05-03 20:43 | -24.54718 | 26.95608 | 24837 ft | 448 kts | 318° |
| 2026-05-03 20:43 | -24.52413 | 26.93361 | 25022 ft | 450 kts | 318° |
| 2026-05-03 20:44 | -24.50071 | 26.91078 | 25218 ft | 451 kts | 318° |
| 2026-05-03 20:44 | -24.47723 | 26.88790 | 25412 ft | 452 kts | 318° |
| 2026-05-03 20:44 | -24.45367 | 26.86495 | 25612 ft | 453 kts | 318° |
| 2026-05-03 20:44 | -24.43005 | 26.84195 | 25806 ft | 455 kts | 318° |
| 2026-05-03 20:45 | -24.40637 | 26.81891 | 25997 ft | 456 kts | 318° |
| 2026-05-03 20:45 | -24.38260 | 26.79579 | 26186 ft | 457 kts | 318° |
| 2026-05-03 20:45 | -24.35877 | 26.77263 | 26375 ft | 459 kts | 318° |
| 2026-05-03 20:45 | -24.33484 | 26.74939 | 26533 ft | 460 kts | 318° |
| 2026-05-03 20:46 | -24.30994 | 26.72716 | 26689 ft | 463 kts | 321° |
| 2026-05-03 20:46 | -24.28428 | 26.70570 | 26859 ft | 464 kts | 322° |
| 2026-05-03 20:46 | -24.25839 | 26.68449 | 27046 ft | 466 kts | 322° |
| 2026-05-03 20:46 | -24.23230 | 26.66336 | 27223 ft | 467 kts | 322° |
| 2026-05-03 20:47 | -24.20609 | 26.64223 | 27396 ft | 468 kts | 322° |
| 2026-05-03 20:47 | -24.17977 | 26.62104 | 27580 ft | 470 kts | 322° |
| 2026-05-03 20:47 | -24.15342 | 26.59982 | 27752 ft | 471 kts | 322° |
| 2026-05-03 20:47 | -24.12699 | 26.57851 | 27932 ft | 473 kts | 322° |
| 2026-05-03 20:48 | -24.10046 | 26.55713 | 28115 ft | 474 kts | 322° |
| 2026-05-03 20:48 | -24.07394 | 26.53573 | 28299 ft | 475 kts | 322° |
| 2026-05-03 20:48 | -24.04728 | 26.51424 | 28445 ft | 476 kts | 322° |
| 2026-05-03 20:48 | -24.02059 | 26.49272 | 28614 ft | 478 kts | 322° |
| 2026-05-03 20:49 | -23.99380 | 26.47114 | 28780 ft | 479 kts | 322° |
| 2026-05-03 20:49 | -23.96697 | 26.44953 | 28952 ft | 480 kts | 322° |
| 2026-05-03 20:49 | -23.94009 | 26.42791 | 29193 ft | 479 kts | 322° |
| 2026-05-03 20:49 | -23.91321 | 26.40629 | 29441 ft | 479 kts | 322° |
| 2026-05-03 20:50 | -23.88640 | 26.38475 | 29677 ft | 479 kts | 322° |
| 2026-05-03 20:50 | -23.85994 | 26.36349 | 29919 ft | 478 kts | 322° |
| 2026-05-03 20:50 | -23.83311 | 26.34199 | 30168 ft | 478 kts | 322° |
| 2026-05-03 20:50 | -23.80624 | 26.32051 | 30350 ft | 479 kts | 322° |
| 2026-05-03 20:51 | -23.77936 | 26.29906 | 30580 ft | 478 kts | 322° |
| 2026-05-03 20:51 | -23.75259 | 26.27770 | 30815 ft | 477 kts | 322° |
| 2026-05-03 20:51 | -23.72581 | 26.25635 | 31042 ft | 476 kts | 322° |
| 2026-05-03 20:51 | -23.69896 | 26.23534 | 31246 ft | 476 kts | 324° |
| 2026-05-03 20:52 | -23.67129 | 26.21549 | 31451 ft | 476 kts | 326° |
| 2026-05-03 20:52 | -23.64326 | 26.19637 | 31655 ft | 475 kts | 326° |
| 2026-05-03 20:52 | -23.61511 | 26.17745 | 31880 ft | 475 kts | 326° |
| 2026-05-03 20:52 | -23.58703 | 26.15851 | 32081 ft | 474 kts | 326° |
| 2026-05-03 20:53 | -23.55908 | 26.13949 | 32298 ft | 473 kts | 326° |
| 2026-05-03 20:53 | -23.53137 | 26.12016 | 32501 ft | 472 kts | 323° |
| 2026-05-03 20:53 | -23.50475 | 26.09932 | 32688 ft | 471 kts | 321° |
| 2026-05-03 20:53 | -23.47882 | 26.07753 | 32914 ft | 470 kts | 320° |
| 2026-05-03 20:54 | -23.46181 | 26.06292 | 33030 ft | 469 kts | 320° |
| 2026-05-03 20:54 | -23.41045 | 26.01908 | 33423 ft | 468 kts | 320° |
| 2026-05-03 20:54 | -23.38466 | 25.99747 | 33610 ft | 468 kts | 320° |
| 2026-05-03 20:55 | -23.35877 | 25.97600 | 33794 ft | 467 kts | 320° |
| 2026-05-03 20:55 | -23.33286 | 25.95466 | 33973 ft | 467 kts | 320° |
| 2026-05-03 20:55 | -23.30697 | 25.93343 | 34136 ft | 467 kts | 320° |
| 2026-05-03 20:55 | -23.28096 | 25.91212 | 34160 ft | 470 kts | 320° |
| 2026-05-03 20:56 | -23.22855 | 25.86920 | 34156 ft | 471 kts | 320° |
| 2026-05-03 20:56 | -23.17628 | 25.82644 | 34155 ft | 470 kts | 320° |
| 2026-05-03 20:57 | -23.12407 | 25.78375 | 34152 ft | 470 kts | 320° |
| 2026-05-03 20:57 | -23.07184 | 25.74106 | 34151 ft | 470 kts | 320° |
| 2026-05-03 20:58 | -23.01958 | 25.69840 | 34153 ft | 470 kts | 320° |
| 2026-05-03 20:58 | -22.96731 | 25.65577 | 34151 ft | 470 kts | 320° |
| 2026-05-03 20:59 | -22.91527 | 25.61357 | 34149 ft | 471 kts | 321° |
| 2026-05-03 20:59 | -22.86198 | 25.57213 | 34149 ft | 472 kts | 322° |
| 2026-05-03 21:00 | -22.81713 | 25.53765 | 34146 ft | 471 kts | 322° |
| 2026-05-03 21:00 | -22.75511 | 25.48975 | 34146 ft | 471 kts | 321° |
| 2026-05-03 21:01 | -22.70187 | 25.44847 | 34141 ft | 471 kts | 321° |
| 2026-05-03 21:01 | -22.64863 | 25.40719 | 34140 ft | 471 kts | 321° |
| 2026-05-03 21:02 | -22.59537 | 25.36594 | 34137 ft | 471 kts | 321° |
| 2026-05-03 21:02 | -22.54208 | 25.32472 | 34133 ft | 471 kts | 321° |
| 2026-05-03 21:03 | -22.48880 | 25.28354 | 34135 ft | 471 kts | 321° |
| 2026-05-03 21:03 | -22.43541 | 25.24233 | 34127 ft | 472 kts | 321° |
| 2026-05-03 21:04 | -22.38199 | 25.20113 | 34130 ft | 472 kts | 321° |
| 2026-05-03 21:04 | -22.32854 | 25.15994 | 34130 ft | 472 kts | 321° |
| 2026-05-03 21:05 | -22.27509 | 25.11880 | 34129 ft | 472 kts | 321° |
| 2026-05-03 21:05 | -22.22165 | 25.07771 | 34129 ft | 471 kts | 321° |
| 2026-05-03 21:06 | -22.16859 | 25.03694 | 34127 ft | 471 kts | 321° |
| 2026-05-03 21:06 | -22.11513 | 24.99590 | 34124 ft | 472 kts | 321° |
| 2026-05-03 21:07 | -22.06151 | 24.95478 | 34127 ft | 474 kts | 321° |
| 2026-05-03 21:07 | -22.00773 | 24.91358 | 34126 ft | 474 kts | 321° |
| 2026-05-03 21:08 | -21.95395 | 24.87242 | 34121 ft | 474 kts | 321° |
| 2026-05-03 21:08 | -21.90015 | 24.83130 | 34121 ft | 474 kts | 321° |
| 2026-05-03 21:09 | -21.84636 | 24.79009 | 34118 ft | 474 kts | 321° |
| 2026-05-03 21:09 | -21.79269 | 24.74888 | 34116 ft | 474 kts | 321° |
| 2026-05-03 21:10 | -21.73896 | 24.70770 | 34120 ft | 474 kts | 321° |
| 2026-05-03 21:10 | -21.68529 | 24.66663 | 34106 ft | 474 kts | 321° |
| 2026-05-03 21:11 | -21.63155 | 24.62556 | 34121 ft | 474 kts | 321° |
| 2026-05-03 21:11 | -21.57783 | 24.58454 | 34105 ft | 474 kts | 321° |
| 2026-05-03 21:12 | -21.52411 | 24.54356 | 34105 ft | 474 kts | 321° |
| 2026-05-03 21:12 | -21.47035 | 24.50259 | 34106 ft | 474 kts | 321° |
| 2026-05-03 21:13 | -21.41660 | 24.46166 | 34110 ft | 473 kts | 321° |
| 2026-05-03 21:13 | -21.36287 | 24.42078 | 34113 ft | 474 kts | 321° |
| 2026-05-03 21:14 | -21.30911 | 24.37993 | 34106 ft | 474 kts | 321° |
| 2026-05-03 21:14 | -21.25522 | 24.33900 | 34112 ft | 475 kts | 321° |
| 2026-05-03 21:15 | -21.20123 | 24.29803 | 34111 ft | 476 kts | 321° |